sensor_id;sensor_type;location;lat;lon;timestamp;temperature;humidity
22674;DHT22;11504;43.334;21.918;2024-01-07T00:01:52;11.8;100.0
22674;DHT22;11504;43.334;21.918;2024-01-07T00:06:28;11.8;100.0
22674;DHT22;11504;43.334;21.918;2024-01-07T00:11:05;11.8;100.0
22674;DHT22;11504;43.334;21.918;2024-01-07T00:15:41;11.8;100.0
22674;DHT22;11504;43.334;21.918;2024-01-07T00:20:17;11.8;100.0
22674;DHT22;11504;43.334;21.918;2024-01-07T00:24:54;11.8;100.0
22674;DHT22;11504;43.334;21.918;2024-01-07T00:29:30;11.8;100.0
22674;DHT22;11504;43.334;21.918;2024-01-07T00:34:06;11.8;100.0
22674;DHT22;11504;43.334;21.918;2024-01-07T00:38:42;11.8;100.0
22674;DHT22;11504;43.334;21.918;2024-01-07T00:43:18;11.8;100.0
22674;DHT22;11504;43.334;21.918;2024-01-07T00:47:54;11.8;100.0
22674;DHT22;11504;43.334;21.918;2024-01-07T00:52:30;11.8;100.0
22674;DHT22;11504;43.334;21.918;2024-01-07T00:57:07;11.8;100.0
22674;DHT22;11504;43.334;21.918;2024-01-07T01:01:43;11.8;100.0
22674;DHT22;11504;43.334;21.918;2024-01-07T01:06:19;11.8;100.0
22674;DHT22;11504;43.334;21.918;2024-01-07T01:10:55;11.7;100.0
22674;DHT22;11504;43.334;21.918;2024-01-07T01:15:32;11.7;100.0
22674;DHT22;11504;43.334;21.918;2024-01-07T01:20:11;11.7;100.0
22674;DHT22;11504;43.334;21.918;2024-01-07T01:24:48;11.7;100.0
22674;DHT22;11504;43.334;21.918;2024-01-07T01:29:24;11.7;100.0
22674;DHT22;11504;43.334;21.918;2024-01-07T01:34:01;11.7;100.0
22674;DHT22;11504;43.334;21.918;2024-01-07T01:38:37;11.7;100.0
22674;DHT22;11504;43.334;21.918;2024-01-07T01:43:24;11.8;100.0
22674;DHT22;11504;43.334;21.918;2024-01-07T01:48:01;11.8;100.0
22674;DHT22;11504;43.334;21.918;2024-01-07T01:52:39;11.8;100.0
22674;DHT22;11504;43.334;21.918;2024-01-07T01:57:28;11.8;100.0
22674;DHT22;11504;43.334;21.918;2024-01-07T02:02:11;11.8;100.0
22674;DHT22;11504;43.334;21.918;2024-01-07T02:06:47;11.8;100.0
22674;DHT22;11504;43.334;21.918;2024-01-07T02:11:24;11.8;100.0
22674;DHT22;11504;43.334;21.918;2024-01-07T02:16:00;11.8;100.0
22674;DHT22;11504;43.334;21.918;2024-01-07T02:20:36;11.9;100.0
22674;DHT22;11504;43.334;21.918;2024-01-07T02:25:13;11.9;100.0
22674;DHT22;11504;43.334;21.918;2024-01-07T02:29:49;12.0;100.0
22674;DHT22;11504;43.334;21.918;2024-01-07T02:34:25;12.0;100.0
22674;DHT22;11504;43.334;21.918;2024-01-07T02:39:02;12.0;100.0
22674;DHT22;11504;43.334;21.918;2024-01-07T02:43:38;12.0;100.0
22674;DHT22;11504;43.334;21.918;2024-01-07T02:48:14;12.0;100.0
22674;DHT22;11504;43.334;21.918;2024-01-07T02:52:50;12.1;100.0
22674;DHT22;11504;43.334;21.918;2024-01-07T02:57:27;12.1;100.0
22674;DHT22;11504;43.334;21.918;2024-01-07T03:02:03;12.1;100.0
22674;DHT22;11504;43.334;21.918;2024-01-07T03:06:39;12.1;100.0
22674;DHT22;11504;43.334;21.918;2024-01-07T03:11:15;12.1;100.0
22674;DHT22;11504;43.334;21.918;2024-01-07T03:15:51;12.1;100.0
22674;DHT22;11504;43.334;21.918;2024-01-07T03:20:27;12.0;100.0
22674;DHT22;11504;43.334;21.918;2024-01-07T03:25:07;12.0;100.0
22674;DHT22;11504;43.334;21.918;2024-01-07T03:29:44;12.0;100.0
22674;DHT22;11504;43.334;21.918;2024-01-07T03:34:20;12.0;100.0
22674;DHT22;11504;43.334;21.918;2024-01-07T03:38:56;12.0;100.0
22674;DHT22;11504;43.334;21.918;2024-01-07T03:43:34;12.0;100.0
22674;DHT22;11504;43.334;21.918;2024-01-07T03:48:10;12.0;100.0
22674;DHT22;11504;43.334;21.918;2024-01-07T04:01:58;11.8;100.0
22674;DHT22;11504;43.334;21.918;2024-01-07T04:06:35;11.8;100.0
22674;DHT22;11504;43.334;21.918;2024-01-07T04:11:11;11.8;100.0
22674;DHT22;11504;43.334;21.918;2024-01-07T04:15:48;11.8;100.0
22674;DHT22;11504;43.334;21.918;2024-01-07T04:20:24;11.8;100.0
22674;DHT22;11504;43.334;21.918;2024-01-07T04:25:00;11.8;100.0
22674;DHT22;11504;43.334;21.918;2024-01-07T04:29:36;11.8;100.0
22674;DHT22;11504;43.334;21.918;2024-01-07T04:34:13;11.8;100.0
22674;DHT22;11504;43.334;21.918;2024-01-07T04:38:49;11.8;100.0
22674;DHT22;11504;43.334;21.918;2024-01-07T04:43:25;11.9;100.0
22674;DHT22;11504;43.334;21.918;2024-01-07T04:48:01;11.9;100.0
22674;DHT22;11504;43.334;21.918;2024-01-07T04:52:37;11.9;100.0
22674;DHT22;11504;43.334;21.918;2024-01-07T04:57:13;11.9;100.0
22674;DHT22;11504;43.334;21.918;2024-01-07T05:01:49;11.8;100.0
22674;DHT22;11504;43.334;21.918;2024-01-07T05:06:25;11.8;100.0
22674;DHT22;11504;43.334;21.918;2024-01-07T05:11:01;11.7;100.0
22674;DHT22;11504;43.334;21.918;2024-01-07T05:15:38;11.7;100.0
22674;DHT22;11504;43.334;21.918;2024-01-07T05:20:16;11.6;100.0
22674;DHT22;11504;43.334;21.918;2024-01-07T05:24:52;11.6;100.0
22674;DHT22;11504;43.334;21.918;2024-01-07T05:29:28;11.6;100.0
22674;DHT22;11504;43.334;21.918;2024-01-07T05:34:04;11.6;100.0
22674;DHT22;11504;43.334;21.918;2024-01-07T05:38:42;11.6;100.0
22674;DHT22;11504;43.334;21.918;2024-01-07T05:43:18;11.6;100.0
22674;DHT22;11504;43.334;21.918;2024-01-07T05:47:54;11.6;100.0
22674;DHT22;11504;43.334;21.918;2024-01-07T05:52:30;11.7;100.0
22674;DHT22;11504;43.334;21.918;2024-01-07T05:57:06;11.7;100.0
22674;DHT22;11504;43.334;21.918;2024-01-07T06:01:43;11.6;100.0
22674;DHT22;11504;43.334;21.918;2024-01-07T06:06:19;11.6;100.0
22674;DHT22;11504;43.334;21.918;2024-01-07T06:10:55;11.5;100.0
22674;DHT22;11504;43.334;21.918;2024-01-07T06:15:31;11.5;100.0
22674;DHT22;11504;43.334;21.918;2024-01-07T06:20:11;11.4;100.0
22674;DHT22;11504;43.334;21.918;2024-01-07T06:24:47;11.4;100.0
22674;DHT22;11504;43.334;21.918;2024-01-07T06:29:23;11.3;100.0
22674;DHT22;11504;43.334;21.918;2024-01-07T06:33:59;11.3;100.0
22674;DHT22;11504;43.334;21.918;2024-01-07T06:38:35;11.3;100.0
22674;DHT22;11504;43.334;21.918;2024-01-07T06:43:11;11.2;100.0
22674;DHT22;11504;43.334;21.918;2024-01-07T06:47:47;11.2;100.0
22674;DHT22;11504;43.334;21.918;2024-01-07T06:52:24;11.2;100.0
22674;DHT22;11504;43.334;21.918;2024-01-07T06:57:00;11.2;100.0
22674;DHT22;11504;43.334;21.918;2024-01-07T07:01:36;11.1;100.0
22674;DHT22;11504;43.334;21.918;2024-01-07T07:06:13;11.1;100.0
22674;DHT22;11504;43.334;21.918;2024-01-07T07:10:49;11.1;100.0
22674;DHT22;11504;43.334;21.918;2024-01-07T07:15:25;11.1;100.0
22674;DHT22;11504;43.334;21.918;2024-01-07T07:20:02;11.0;100.0
22674;DHT22;11504;43.334;21.918;2024-01-07T07:24:41;11.0;100.0
22674;DHT22;11504;43.334;21.918;2024-01-07T07:29:17;11.0;100.0
22674;DHT22;11504;43.334;21.918;2024-01-07T07:33:53;11.0;100.0
22674;DHT22;11504;43.334;21.918;2024-01-07T07:38:29;11.0;100.0
22674;DHT22;11504;43.334;21.918;2024-01-07T07:43:05;11.1;100.0
22674;DHT22;11504;43.334;21.918;2024-01-07T07:47:42;11.1;100.0
22674;DHT22;11504;43.334;21.918;2024-01-07T07:52:20;11.2;100.0
22674;DHT22;11504;43.334;21.918;2024-01-07T07:56:56;11.2;100.0
22674;DHT22;11504;43.334;21.918;2024-01-07T08:01:32;11.2;100.0
22674;DHT22;11504;43.334;21.918;2024-01-07T08:06:08;11.2;100.0
22674;DHT22;11504;43.334;21.918;2024-01-07T08:10:45;11.2;100.0
22674;DHT22;11504;43.334;21.918;2024-01-07T08:15:22;11.2;100.0
22674;DHT22;11504;43.334;21.918;2024-01-07T08:19:59;11.3;100.0
22674;DHT22;11504;43.334;21.918;2024-01-07T08:24:35;11.3;100.0
22674;DHT22;11504;43.334;21.918;2024-01-07T08:29:11;11.3;100.0
22674;DHT22;11504;43.334;21.918;2024-01-07T08:33:47;11.4;100.0
22674;DHT22;11504;43.334;21.918;2024-01-07T08:38:24;11.4;100.0
22674;DHT22;11504;43.334;21.918;2024-01-07T08:43:00;11.4;100.0
22674;DHT22;11504;43.334;21.918;2024-01-07T08:47:37;11.4;100.0
22674;DHT22;11504;43.334;21.918;2024-01-07T08:52:14;11.5;100.0
22674;DHT22;11504;43.334;21.918;2024-01-07T08:56:50;11.5;100.0
22674;DHT22;11504;43.334;21.918;2024-01-07T09:01:26;11.6;100.0
22674;DHT22;11504;43.334;21.918;2024-01-07T09:06:03;11.6;100.0
22674;DHT22;11504;43.334;21.918;2024-01-07T09:10:40;11.6;100.0
22674;DHT22;11504;43.334;21.918;2024-01-07T09:15:20;11.6;100.0
22674;DHT22;11504;43.334;21.918;2024-01-07T09:19:57;11.6;100.0
22674;DHT22;11504;43.334;21.918;2024-01-07T09:24:33;11.6;100.0
22674;DHT22;11504;43.334;21.918;2024-01-07T09:29:10;11.6;100.0
22674;DHT22;11504;43.334;21.918;2024-01-07T09:33:46;11.7;100.0
22674;DHT22;11504;43.334;21.918;2024-01-07T09:38:22;11.7;100.0
22674;DHT22;11504;43.334;21.918;2024-01-07T09:43:00;11.8;100.0
22674;DHT22;11504;43.334;21.918;2024-01-07T09:47:37;11.8;100.0
22674;DHT22;11504;43.334;21.918;2024-01-07T09:52:14;12.0;100.0
22674;DHT22;11504;43.334;21.918;2024-01-07T09:57:04;12.0;100.0
22674;DHT22;11504;43.334;21.918;2024-01-07T10:01:41;12.0;100.0
22674;DHT22;11504;43.334;21.918;2024-01-07T10:06:20;12.0;100.0
22674;DHT22;11504;43.334;21.918;2024-01-07T10:10:58;12.1;100.0
22674;DHT22;11504;43.334;21.918;2024-01-07T10:15:36;12.1;100.0
22674;DHT22;11504;43.334;21.918;2024-01-07T10:20:12;12.2;100.0
22674;DHT22;11504;43.334;21.918;2024-01-07T10:24:51;12.2;100.0
22674;DHT22;11504;43.334;21.918;2024-01-07T10:29:28;12.2;100.0
22674;DHT22;11504;43.334;21.918;2024-01-07T10:34:09;12.3;100.0
22674;DHT22;11504;43.334;21.918;2024-01-07T10:38:46;12.3;100.0
22674;DHT22;11504;43.334;21.918;2024-01-07T10:43:23;12.4;100.0
22674;DHT22;11504;43.334;21.918;2024-01-07T10:48:10;12.4;100.0
22674;DHT22;11504;43.334;21.918;2024-01-07T10:53:04;12.6;100.0
22674;DHT22;11504;43.334;21.918;2024-01-07T10:57:48;12.6;100.0
22674;DHT22;11504;43.334;21.918;2024-01-07T11:02:28;13.1;100.0
22674;DHT22;11504;43.334;21.918;2024-01-07T11:07:35;13.1;100.0
22674;DHT22;11504;43.334;21.918;2024-01-07T11:12:12;13.6;100.0
22674;DHT22;11504;43.334;21.918;2024-01-07T11:16:48;13.6;100.0
22674;DHT22;11504;43.334;21.918;2024-01-07T11:21:25;14.0;100.0
22674;DHT22;11504;43.334;21.918;2024-01-07T11:26:02;14.0;100.0
22674;DHT22;11504;43.334;21.918;2024-01-07T11:30:39;14.3;100.0
22674;DHT22;11504;43.334;21.918;2024-01-07T11:35:53;14.3;100.0
22674;DHT22;11504;43.334;21.918;2024-01-07T11:40:30;14.4;100.0
22674;DHT22;11504;43.334;21.918;2024-01-07T11:45:08;14.4;100.0
22674;DHT22;11504;43.334;21.918;2024-01-07T11:49:46;14.5;100.0
22674;DHT22;11504;43.334;21.918;2024-01-07T11:54:23;14.5;100.0
22674;DHT22;11504;43.334;21.918;2024-01-07T11:58:59;14.5;100.0
22674;DHT22;11504;43.334;21.918;2024-01-07T12:03:37;14.6;100.0
22674;DHT22;11504;43.334;21.918;2024-01-07T12:08:14;14.6;100.0
22674;DHT22;11504;43.334;21.918;2024-01-07T12:12:53;14.7;100.0
22674;DHT22;11504;43.334;21.918;2024-01-07T12:17:31;14.7;100.0
22674;DHT22;11504;43.334;21.918;2024-01-07T12:22:07;14.8;100.0
22674;DHT22;11504;43.334;21.918;2024-01-07T12:26:44;14.8;100.0
22674;DHT22;11504;43.334;21.918;2024-01-07T12:31:21;15.0;100.0
22674;DHT22;11504;43.334;21.918;2024-01-07T12:35:58;15.0;100.0
22674;DHT22;11504;43.334;21.918;2024-01-07T12:40:35;15.2;100.0
22674;DHT22;11504;43.334;21.918;2024-01-07T12:45:14;15.2;100.0
22674;DHT22;11504;43.334;21.918;2024-01-07T12:49:50;15.3;100.0
22674;DHT22;11504;43.334;21.918;2024-01-07T12:54:26;15.3;100.0
22674;DHT22;11504;43.334;21.918;2024-01-07T12:59:02;15.3;100.0
22674;DHT22;11504;43.334;21.918;2024-01-07T13:03:40;15.2;100.0
22674;DHT22;11504;43.334;21.918;2024-01-07T13:08:17;15.2;100.0
22674;DHT22;11504;43.334;21.918;2024-01-07T13:12:54;15.2;100.0
22674;DHT22;11504;43.334;21.918;2024-01-07T13:17:31;15.2;100.0
22674;DHT22;11504;43.334;21.918;2024-01-07T13:22:08;15.3;100.0
22674;DHT22;11504;43.334;21.918;2024-01-07T13:26:44;15.3;100.0
22674;DHT22;11504;43.334;21.918;2024-01-07T13:31:21;15.4;100.0
22674;DHT22;11504;43.334;21.918;2024-01-07T13:35:58;15.4;100.0
22674;DHT22;11504;43.334;21.918;2024-01-07T13:40:34;15.4;100.0
22674;DHT22;11504;43.334;21.918;2024-01-07T13:45:10;15.4;100.0
22674;DHT22;11504;43.334;21.918;2024-01-07T13:49:46;15.3;100.0
22674;DHT22;11504;43.334;21.918;2024-01-07T13:54:23;15.3;100.0
22674;DHT22;11504;43.334;21.918;2024-01-07T13:58:59;15.3;100.0
22674;DHT22;11504;43.334;21.918;2024-01-07T14:03:35;15.2;100.0
22674;DHT22;11504;43.334;21.918;2024-01-07T14:08:11;15.2;100.0
22674;DHT22;11504;43.334;21.918;2024-01-07T14:12:47;15.2;100.0
22674;DHT22;11504;43.334;21.918;2024-01-07T14:17:24;15.2;100.0
22674;DHT22;11504;43.334;21.918;2024-01-07T14:22:01;15.0;100.0
22674;DHT22;11504;43.334;21.918;2024-01-07T14:26:37;15.0;100.0
22674;DHT22;11504;43.334;21.918;2024-01-07T14:31:13;14.8;100.0
22674;DHT22;11504;43.334;21.918;2024-01-07T14:35:50;14.8;100.0
22674;DHT22;11504;43.334;21.918;2024-01-07T14:40:27;14.8;100.0
22674;DHT22;11504;43.334;21.918;2024-01-07T14:45:05;14.8;100.0
22674;DHT22;11504;43.334;21.918;2024-01-07T14:49:43;14.8;100.0
22674;DHT22;11504;43.334;21.918;2024-01-07T14:54:20;14.7;100.0
22674;DHT22;11504;43.334;21.918;2024-01-07T14:58:57;14.7;100.0
22674;DHT22;11504;43.334;21.918;2024-01-07T15:03:33;14.6;100.0
22674;DHT22;11504;43.334;21.918;2024-01-07T15:08:10;14.6;100.0
22674;DHT22;11504;43.334;21.918;2024-01-07T15:12:46;14.6;100.0
22674;DHT22;11504;43.334;21.918;2024-01-07T15:17:22;14.6;100.0
22674;DHT22;11504;43.334;21.918;2024-01-07T15:21:58;14.5;100.0
22674;DHT22;11504;43.334;21.918;2024-01-07T15:26:35;14.5;100.0
22674;DHT22;11504;43.334;21.918;2024-01-07T15:31:11;14.4;100.0
22674;DHT22;11504;43.334;21.918;2024-01-07T15:35:47;14.4;100.0
22674;DHT22;11504;43.334;21.918;2024-01-07T15:40:24;14.2;100.0
22674;DHT22;11504;43.334;21.918;2024-01-07T15:45:01;14.2;100.0
22674;DHT22;11504;43.334;21.918;2024-01-07T15:49:37;14.2;100.0
22674;DHT22;11504;43.334;21.918;2024-01-07T15:54:13;13.9;100.0
22674;DHT22;11504;43.334;21.918;2024-01-07T15:58:50;13.9;100.0
22674;DHT22;11504;43.334;21.918;2024-01-07T16:03:26;13.4;100.0
22674;DHT22;11504;43.334;21.918;2024-01-07T16:08:04;13.4;100.0
22674;DHT22;11504;43.334;21.918;2024-01-07T16:12:41;13.0;100.0
22674;DHT22;11504;43.334;21.918;2024-01-07T16:17:17;13.0;100.0
22674;DHT22;11504;43.334;21.918;2024-01-07T16:21:53;12.7;100.0
22674;DHT22;11504;43.334;21.918;2024-01-07T16:26:29;12.7;100.0
22674;DHT22;11504;43.334;21.918;2024-01-07T16:31:05;12.4;100.0
22674;DHT22;11504;43.334;21.918;2024-01-07T16:35:42;12.4;100.0
22674;DHT22;11504;43.334;21.918;2024-01-07T16:40:18;12.2;100.0
22674;DHT22;11504;43.334;21.918;2024-01-07T16:44:54;12.2;100.0
22674;DHT22;11504;43.334;21.918;2024-01-07T16:49:31;12.2;100.0
22674;DHT22;11504;43.334;21.918;2024-01-07T16:54:07;11.9;100.0
22674;DHT22;11504;43.334;21.918;2024-01-07T16:58:43;11.9;100.0
22674;DHT22;11504;43.334;21.918;2024-01-07T17:03:19;11.9;100.0
22674;DHT22;11504;43.334;21.918;2024-01-07T17:07:56;11.9;100.0
22674;DHT22;11504;43.334;21.918;2024-01-07T17:12:32;11.9;100.0
22674;DHT22;11504;43.334;21.918;2024-01-07T17:17:08;11.9;100.0
22674;DHT22;11504;43.334;21.918;2024-01-07T17:21:45;12.0;100.0
22674;DHT22;11504;43.334;21.918;2024-01-07T17:26:21;12.0;100.0
22674;DHT22;11504;43.334;21.918;2024-01-07T17:30:58;12.1;100.0
22674;DHT22;11504;43.334;21.918;2024-01-07T17:35:35;12.1;100.0
22674;DHT22;11504;43.334;21.918;2024-01-07T17:40:14;12.0;100.0
22674;DHT22;11504;43.334;21.918;2024-01-07T17:44:51;12.0;100.0
22674;DHT22;11504;43.334;21.918;2024-01-07T17:49:27;12.0;100.0
22674;DHT22;11504;43.334;21.918;2024-01-07T17:54:04;12.0;100.0
22674;DHT22;11504;43.334;21.918;2024-01-07T17:58:40;12.0;100.0
22674;DHT22;11504;43.334;21.918;2024-01-07T18:03:16;11.8;100.0
22674;DHT22;11504;43.334;21.918;2024-01-07T18:07:52;11.8;100.0
22674;DHT22;11504;43.334;21.918;2024-01-07T18:12:28;11.7;100.0
22674;DHT22;11504;43.334;21.918;2024-01-07T18:17:05;11.7;100.0
22674;DHT22;11504;43.334;21.918;2024-01-07T18:21:41;11.6;100.0
22674;DHT22;11504;43.334;21.918;2024-01-07T18:26:18;11.6;100.0
22674;DHT22;11504;43.334;21.918;2024-01-07T18:30:54;11.5;100.0
22674;DHT22;11504;43.334;21.918;2024-01-07T18:35:31;11.5;100.0
22674;DHT22;11504;43.334;21.918;2024-01-07T18:40:11;11.4;100.0
22674;DHT22;11504;43.334;21.918;2024-01-07T18:44:48;11.4;100.0
22674;DHT22;11504;43.334;21.918;2024-01-07T18:49:24;11.4;100.0
22674;DHT22;11504;43.334;21.918;2024-01-07T18:54:00;11.4;100.0
22674;DHT22;11504;43.334;21.918;2024-01-07T18:58:37;11.4;100.0
22674;DHT22;11504;43.334;21.918;2024-01-07T19:03:13;11.4;100.0
22674;DHT22;11504;43.334;21.918;2024-01-07T19:07:49;11.4;100.0
22674;DHT22;11504;43.334;21.918;2024-01-07T19:12:25;11.4;100.0
22674;DHT22;11504;43.334;21.918;2024-01-07T19:17:01;11.4;100.0
22674;DHT22;11504;43.334;21.918;2024-01-07T19:21:38;11.4;100.0
22674;DHT22;11504;43.334;21.918;2024-01-07T19:26:14;11.4;100.0
22674;DHT22;11504;43.334;21.918;2024-01-07T19:30:50;11.5;100.0
22674;DHT22;11504;43.334;21.918;2024-01-07T19:35:27;11.5;100.0
22674;DHT22;11504;43.334;21.918;2024-01-07T19:40:08;11.4;100.0
22674;DHT22;11504;43.334;21.918;2024-01-07T19:44:45;11.4;100.0
22674;DHT22;11504;43.334;21.918;2024-01-07T19:49:21;11.4;100.0
22674;DHT22;11504;43.334;21.918;2024-01-07T19:53:58;11.4;100.0
22674;DHT22;11504;43.334;21.918;2024-01-07T19:58:34;11.4;100.0
22674;DHT22;11504;43.334;21.918;2024-01-07T20:03:11;11.4;100.0
22674;DHT22;11504;43.334;21.918;2024-01-07T20:07:47;11.4;100.0
22674;DHT22;11504;43.334;21.918;2024-01-07T20:12:24;11.4;100.0
22674;DHT22;11504;43.334;21.918;2024-01-07T20:17:00;11.4;100.0
22674;DHT22;11504;43.334;21.918;2024-01-07T20:21:37;11.4;100.0
22674;DHT22;11504;43.334;21.918;2024-01-07T20:26:14;11.4;100.0
22674;DHT22;11504;43.334;21.918;2024-01-07T20:30:51;11.3;100.0
22674;DHT22;11504;43.334;21.918;2024-01-07T20:35:27;11.3;100.0
22674;DHT22;11504;43.334;21.918;2024-01-07T20:40:08;11.3;100.0
22674;DHT22;11504;43.334;21.918;2024-01-07T20:44:44;11.2;100.0
22674;DHT22;11504;43.334;21.918;2024-01-07T20:49:20;11.2;100.0
22674;DHT22;11504;43.334;21.918;2024-01-07T20:53:57;11.2;100.0
22674;DHT22;11504;43.334;21.918;2024-01-07T20:58:33;11.2;100.0
22674;DHT22;11504;43.334;21.918;2024-01-07T21:03:09;11.2;100.0
22674;DHT22;11504;43.334;21.918;2024-01-07T21:07:47;11.2;100.0
22674;DHT22;11504;43.334;21.918;2024-01-07T21:12:23;11.3;100.0
22674;DHT22;11504;43.334;21.918;2024-01-07T21:16:59;11.3;100.0
22674;DHT22;11504;43.334;21.918;2024-01-07T21:21:36;11.3;100.0
22674;DHT22;11504;43.334;21.918;2024-01-07T21:26:12;11.3;100.0
22674;DHT22;11504;43.334;21.918;2024-01-07T21:30:49;11.3;100.0
22674;DHT22;11504;43.334;21.918;2024-01-07T21:35:25;11.3;100.0
22674;DHT22;11504;43.334;21.918;2024-01-07T21:40:05;11.3;100.0
22674;DHT22;11504;43.334;21.918;2024-01-07T21:44:42;11.2;100.0
22674;DHT22;11504;43.334;21.918;2024-01-07T21:49:18;11.2;100.0
22674;DHT22;11504;43.334;21.918;2024-01-07T21:53:54;11.2;100.0
22674;DHT22;11504;43.334;21.918;2024-01-07T21:58:30;11.2;100.0
22674;DHT22;11504;43.334;21.918;2024-01-07T22:03:06;11.1;100.0
22674;DHT22;11504;43.334;21.918;2024-01-07T22:07:42;11.1;100.0
22674;DHT22;11504;43.334;21.918;2024-01-07T22:12:18;11.1;100.0
22674;DHT22;11504;43.334;21.918;2024-01-07T22:16:54;11.1;100.0
22674;DHT22;11504;43.334;21.918;2024-01-07T22:21:31;11.1;100.0
22674;DHT22;11504;43.334;21.918;2024-01-07T22:26:07;11.1;100.0
22674;DHT22;11504;43.334;21.918;2024-01-07T22:30:44;11.2;100.0
22674;DHT22;11504;43.334;21.918;2024-01-07T22:35:20;11.2;100.0
22674;DHT22;11504;43.334;21.918;2024-01-07T22:39:57;11.2;100.0
22674;DHT22;11504;43.334;21.918;2024-01-07T22:44:35;11.1;100.0
22674;DHT22;11504;43.334;21.918;2024-01-07T22:49:12;11.1;100.0
22674;DHT22;11504;43.334;21.918;2024-01-07T22:53:49;11.1;100.0
22674;DHT22;11504;43.334;21.918;2024-01-07T22:58:25;11.1;100.0
22674;DHT22;11504;43.334;21.918;2024-01-07T23:03:02;11.0;100.0
22674;DHT22;11504;43.334;21.918;2024-01-07T23:07:39;11.0;100.0
22674;DHT22;11504;43.334;21.918;2024-01-07T23:12:15;10.9;100.0
22674;DHT22;11504;43.334;21.918;2024-01-07T23:16:51;10.9;100.0
22674;DHT22;11504;43.334;21.918;2024-01-07T23:21:27;10.7;100.0
22674;DHT22;11504;43.334;21.918;2024-01-07T23:26:04;10.7;100.0
22674;DHT22;11504;43.334;21.918;2024-01-07T23:30:40;10.5;100.0
22674;DHT22;11504;43.334;21.918;2024-01-07T23:35:17;10.5;100.0
22674;DHT22;11504;43.334;21.918;2024-01-07T23:39:53;10.5;100.0
22674;DHT22;11504;43.334;21.918;2024-01-07T23:44:30;10.1;100.0
22674;DHT22;11504;43.334;21.918;2024-01-07T23:49:06;10.1;100.0
22674;DHT22;11504;43.334;21.918;2024-01-07T23:53:43;9.7;100.0
22674;DHT22;11504;43.334;21.918;2024-01-07T23:58:19;9.7;100.0
